Time;durP1;ratioP1;P1;durP2;ratioP2;P2;SDS_P1;SDS_P2;PMS_P1;PMS_P2;Temp;Humidity;BMP_temperature;BMP_pressure;BME280_temperature;BME280_humidity;BME280_pressure;Samples;Min_cycle;Max_cycle;Signal;HPM_P1;HPM_P2
2022/10/29 00:00:50;;;;;;;9.73;6.03;;;17.40;99.90;;;;;;5073469;28;20520;-47
2022/10/29 00:03:18;;;;;;;15.20;5.73;;;17.30;99.90;;;;;;5073711;28;20495;-46
2022/10/29 00:05:54;;;;;;;13.50;6.47;;;17.40;99.90;;;;;;5073613;28;20469;-47
2022/10/29 00:08:21;;;;;;;11.37;5.60;;;17.20;99.90;;;;;;5073558;28;20536;-47
2022/10/29 00:10:48;;;;;;;15.70;6.23;;;17.30;99.90;;;;;;5073437;28;20433;-47
2022/10/29 00:13:15;;;;;;;15.33;6.73;;;17.30;99.90;;;;;;5073544;28;20437;-48
2022/10/29 00:15:41;;;;;;;12.93;6.00;;;17.20;99.90;;;;;;5074238;28;20846;-47
2022/10/29 00:18:08;;;;;;;10.00;5.63;;;17.30;99.90;;;;;;5075611;28;20484;-47
2022/10/29 00:20:36;;;;;;;18.90;6.70;;;17.60;99.90;;;;;;5074359;28;20434;-49
2022/10/29 00:23:02;;;;;;;17.40;6.27;;;17.20;99.90;;;;;;5074393;28;20948;-48
2022/10/29 00:25:29;;;;;;;14.00;6.63;;;17.40;99.90;;;;;;5075279;28;20515;-47
2022/10/29 00:27:56;;;;;;;13.70;6.63;;;16.70;99.90;;;;;;5074265;28;20456;-47
2022/10/29 00:30:22;;;;;;;15.27;7.37;;;17.50;99.90;;;;;;5073331;28;20791;-45
2022/10/29 00:32:49;;;;;;;14.40;6.10;;;17.20;99.90;;;;;;5073478;28;20444;-47
2022/10/29 00:35:16;;;;;;;16.33;6.53;;;17.40;99.90;;;;;;5073609;28;20956;-47
2022/10/29 00:37:43;;;;;;;25.50;6.83;;;17.40;99.90;;;;;;5073615;28;20488;-47
2022/10/29 00:40:11;;;;;;;21.77;6.37;;;17.20;99.90;;;;;;5072933;28;20444;-47
2022/10/29 00:42:38;;;;;;;17.60;6.70;;;17.20;99.90;;;;;;5073146;28;20932;-47
2022/10/29 00:45:06;;;;;;;14.53;6.00;;;17.20;99.90;;;;;;5072920;28;20955;-46
2022/10/29 00:47:36;;;;;;;9.60;5.80;;;17.00;99.90;;;;;;5072657;28;20428;-47
2022/10/29 00:50:07;;;;;;;14.83;6.70;;;16.80;99.90;;;;;;5072589;28;20423;-47
2022/10/29 00:52:38;;;;;;;10.73;6.10;;;17.70;99.90;;;;;;5072936;28;20442;-46
2022/10/29 00:55:09;;;;;;;12.40;5.90;;;17.20;99.90;;;;;;5072729;28;20958;-47
2022/10/29 00:57:39;;;;;;;13.90;6.20;;;17.40;99.90;;;;;;5072456;28;20472;-46
2022/10/29 01:00:07;;;;;;;17.30;7.70;;;17.10;99.90;;;;;;5054038;28;20449;-46
2022/10/29 01:02:35;;;;;;;11.37;6.23;;;17.10;99.90;;;;;;5072493;28;20440;-48
2022/10/29 01:05:03;;;;;;;14.57;7.40;;;17.00;99.90;;;;;;5072011;28;20435;-46
2022/10/29 01:07:31;;;;;;;16.57;6.93;;;17.20;99.90;;;;;;5072379;28;20914;-47
2022/10/29 01:09:58;;;;;;;27.23;7.63;;;17.10;99.90;;;;;;5072191;28;20427;-47
2022/10/29 01:12:54;;;;;;;11.93;6.80;;;17.20;99.90;;;;;;5072301;28;20437;-47
2022/10/29 01:15:26;;;;;;;13.77;6.40;;;17.40;99.90;;;;;;5054304;28;20449;-46
2022/10/29 01:18:04;;;;;;;13.07;7.40;;;17.30;99.90;;;;;;5072362;28;20496;-47
2022/10/29 01:20:53;;;;;;;17.13;6.67;;;17.10;99.90;;;;;;5071828;28;20440;-47
2022/10/29 01:24:01;;;;;;;18.30;8.23;;;17.10;99.90;;;;;;5072483;28;20436;-47
2022/10/29 01:27:07;;;;;;;14.07;8.40;;;17.10;99.90;;;;;;4997521;28;20770;-48
2022/10/29 01:29:49;;;;;;;10.73;6.50;;;17.10;99.90;;;;;;5071545;28;20467;-48
2022/10/29 01:32:23;;;;;;;16.70;7.63;;;16.80;99.90;;;;;;5071914;28;20454;-47
2022/10/29 01:34:57;;;;;;;11.43;6.17;;;17.00;99.90;;;;;;5071935;28;20441;-47
2022/10/29 01:37:30;;;;;;;18.30;7.70;;;16.90;99.90;;;;;;5071240;28;20838;-46
2022/10/29 01:40:04;;;;;;;13.60;8.07;;;17.00;99.90;;;;;;5071576;28;20428;-47
2022/10/29 01:42:37;;;;;;;15.70;7.80;;;17.50;99.90;;;;;;5072177;28;20955;-47
2022/10/29 01:45:12;;;;;;;10.57;7.17;;;17.00;99.90;;;;;;5071992;28;20984;-47
2022/10/29 01:47:43;;;;;;;19.47;7.47;;;17.00;99.90;;;;;;5071707;28;20435;-47
2022/10/29 01:50:15;;;;;;;16.43;8.23;;;17.00;99.90;;;;;;5071461;28;20423;-47
2022/10/29 01:52:43;;;;;;;14.33;7.33;;;16.90;99.90;;;;;;5071835;28;20436;-47
2022/10/29 01:55:09;;;;;;;22.00;8.63;;;17.10;99.90;;;;;;5071891;28;20459;-46
2022/10/29 01:57:38;;;;;;;15.93;8.70;;;17.20;99.90;;;;;;5071600;28;20469;-47
2022/10/29 02:00:07;;;;;;;23.17;9.30;;;16.80;99.90;;;;;;5071456;28;20436;-46
2022/10/29 02:02:53;;;;;;;17.70;9.07;;;16.90;99.90;;;;;;5072124;28;20456;-46
2022/10/29 02:05:28;;;;;;;19.60;7.70;;;16.70;99.90;;;;;;5071897;28;20439;-47
2022/10/29 02:07:59;;;;;;;16.87;8.87;;;16.90;99.90;;;;;;5071681;28;20457;-45
2022/10/29 02:10:32;;;;;;;22.43;8.37;;;17.00;99.90;;;;;;5071315;28;20402;-47
2022/10/29 02:12:59;;;;;;;19.50;8.70;;;16.80;99.90;;;;;;5071644;28;20439;-45
2022/10/29 02:15:30;;;;;;;16.30;7.80;;;16.80;99.90;;;;;;5071881;28;20440;-47
2022/10/29 02:18:00;;;;;;;12.17;7.13;;;16.80;99.90;;;;;;5071508;28;20490;-47
2022/10/29 02:20:27;;;;;;;9.07;7.40;;;17.40;99.90;;;;;;5071298;28;20424;-48
2022/10/29 02:22:54;;;;;;;16.57;9.43;;;16.90;99.90;;;;;;5071537;28;20439;-47
2022/10/29 02:25:21;;;;;;;17.00;9.87;;;16.30;99.90;;;;;;5072080;28;20426;-47
2022/10/29 02:27:47;;;;;;;17.97;9.83;;;16.70;99.90;;;;;;5071390;28;20656;-47
2022/10/29 02:30:14;;;;;;;19.57;9.13;;;17.20;99.90;;;;;;5071171;28;20442;-47
2022/10/29 02:32:41;;;;;;;18.53;8.83;;;17.00;99.90;;;;;;5071515;28;20466;-46
2022/10/29 02:35:09;;;;;;;16.30;8.73;;;16.60;99.90;;;;;;5071536;28;20436;-47
2022/10/29 02:37:36;;;;;;;12.43;8.40;;;16.80;99.90;;;;;;5071368;28;20470;-48
2022/10/29 02:40:03;;;;;;;17.80;10.60;;;17.00;99.90;;;;;;5071196;28;20542;-47
2022/10/29 02:42:30;;;;;;;16.77;9.00;;;16.60;99.90;;;;;;5071444;28;20443;-47
2022/10/29 02:44:56;;;;;;;11.27;8.57;;;17.20;99.90;;;;;;5071506;28;20440;-47
2022/10/29 02:47:23;;;;;;;14.73;9.20;;;17.00;99.90;;;;;;5072324;28;20921;-47
2022/10/29 02:49:50;;;;;;;14.13;9.57;;;16.80;99.90;;;;;;5056750;28;20468;-47
2022/10/29 02:52:18;;;;;;;13.93;7.50;;;16.90;99.90;;;;;;5075050;28;20440;-47
2022/10/29 02:54:44;;;;;;;15.67;7.57;;;16.60;99.90;;;;;;5056824;28;20459;-48
2022/10/29 02:57:11;;;;;;;18.33;8.97;;;16.80;99.90;;;;;;5074963;28;20451;-46
2022/10/29 02:59:37;;;;;;;18.60;8.40;;;16.70;99.90;;;;;;5074342;28;20491;-47
2022/10/29 03:02:04;;;;;;;16.03;8.20;;;16.80;99.90;;;;;;5074846;28;20439;-47
2022/10/29 03:04:31;;;;;;;12.13;7.20;;;16.70;99.90;;;;;;5074764;28;20821;-47
2022/10/29 03:06:58;;;;;;;12.63;7.23;;;16.90;99.90;;;;;;5074675;28;20427;-46
2022/10/29 03:09:26;;;;;;;12.43;7.17;;;16.70;99.90;;;;;;5074185;28;20455;-48
2022/10/29 03:11:52;;;;;;;14.93;8.07;;;16.90;99.90;;;;;;5074535;28;20432;-47
2022/10/29 03:14:19;;;;;;;15.63;7.37;;;16.60;99.90;;;;;;5074544;28;20449;-47
2022/10/29 03:16:45;;;;;;;18.13;8.27;;;16.80;99.90;;;;;;5074661;28;20462;-47
2022/10/29 03:19:12;;;;;;;18.40;7.70;;;16.80;99.90;;;;;;5073984;28;20491;-47
2022/10/29 03:21:38;;;;;;;12.90;7.90;;;16.70;99.90;;;;;;5074450;28;20415;-47
2022/10/29 03:24:06;;;;;;;16.80;7.70;;;16.50;99.90;;;;;;5074314;28;20455;-47
2022/10/29 03:26:33;;;;;;;13.60;6.10;;;16.70;99.90;;;;;;5074343;28;20440;-45
2022/10/29 03:29:00;;;;;;;13.20;7.83;;;16.70;99.90;;;;;;5073885;28;20993;-45
2022/10/29 03:31:27;;;;;;;16.43;7.80;;;16.40;99.90;;;;;;5074395;28;20427;-47
2022/10/29 03:33:54;;;;;;;13.60;6.63;;;16.50;99.90;;;;;;5074208;28;20436;-46
2022/10/29 03:36:20;;;;;;;10.23;6.40;;;16.50;99.90;;;;;;5074158;28;20432;-47
2022/10/29 03:38:47;;;;;;;15.87;8.53;;;16.50;99.90;;;;;;5073665;28;20481;-47
2022/10/29 03:41:13;;;;;;;13.00;6.80;;;16.60;99.90;;;;;;5074165;28;20960;-47
2022/10/29 03:43:41;;;;;;;18.70;8.13;;;16.60;99.90;;;;;;5074251;28;20804;-46
2022/10/29 03:46:08;;;;;;;14.57;7.70;;;16.30;99.90;;;;;;5074466;28;20429;-47
2022/10/29 03:48:35;;;;;;;13.63;7.53;;;16.90;99.90;;;;;;5074020;28;20447;-46
2022/10/29 03:51:04;;;;;;;12.00;7.90;;;16.40;99.90;;;;;;5074160;28;20769;-48
2022/10/29 03:53:31;;;;;;;12.17;7.47;;;16.40;99.90;;;;;;5074351;28;20448;-47
2022/10/29 03:55:58;;;;;;;13.97;8.57;;;16.40;99.90;;;;;;5074265;28;20820;-46
2022/10/29 03:58:25;;;;;;;22.27;10.10;;;16.60;99.90;;;;;;5073357;28;20451;-46
2022/10/29 04:00:58;;;;;;;19.17;7.93;;;16.30;99.90;;;;;;5073901;28;20435;-47
2022/10/29 04:03:26;;;;;;;14.50;9.00;;;16.90;99.90;;;;;;5074252;28;20437;-46
2022/10/29 04:05:52;;;;;;;16.23;8.53;;;16.00;99.90;;;;;;5074116;28;20435;-46
2022/10/29 04:08:19;;;;;;;9.83;6.50;;;16.70;99.90;;;;;;5073490;28;20452;-46
2022/10/29 04:10:47;;;;;;;12.57;8.47;;;16.20;99.90;;;;;;5073108;28;20446;-46
2022/10/29 04:13:15;;;;;;;13.27;8.40;;;16.60;99.90;;;;;;5073566;28;20950;-47
2022/10/29 04:15:41;;;;;;;13.50;8.60;;;16.40;99.90;;;;;;5073232;28;20806;-46
2022/10/29 04:18:10;;;;;;;14.10;8.57;;;16.40;99.90;;;;;;5072989;28;20483;-47
2022/10/29 04:20:38;;;;;;;20.40;9.00;;;16.40;99.90;;;;;;5054796;28;20456;-46
2022/10/29 04:23:05;;;;;;;18.83;8.57;;;16.40;99.90;;;;;;5073268;28;20919;-46
2022/10/29 04:25:32;;;;;;;16.10;9.13;;;16.50;99.90;;;;;;5072996;28;20444;-47
2022/10/29 04:27:58;;;;;;;18.60;9.70;;;16.60;99.90;;;;;;5073488;28;20486;-49
2022/10/29 04:30:25;;;;;;;24.23;10.00;;;16.20;99.90;;;;;;5072518;28;20438;-49
2022/10/29 04:32:55;;;;;;;16.73;8.60;;;15.90;99.90;;;;;;5072962;28;20434;-49
2022/10/29 04:35:23;;;;;;;12.90;7.43;;;16.20;99.90;;;;;;5072812;28;20463;-49
2022/10/29 04:37:50;;;;;;;18.83;10.23;;;16.30;99.90;;;;;;5072756;28;20435;-49
2022/10/29 04:40:17;;;;;;;19.80;8.20;;;16.10;99.90;;;;;;5072438;28;20439;-49
2022/10/29 04:42:43;;;;;;;11.77;7.30;;;16.20;99.90;;;;;;5072705;28;20927;-48
2022/10/29 04:45:10;;;;;;;12.30;7.00;;;16.30;99.90;;;;;;5072604;28;20439;-50
2022/10/29 04:47:36;;;;;;;14.73;7.20;;;16.30;99.90;;;;;;5072614;28;20999;-50
2022/10/29 04:50:04;;;;;;;13.70;9.30;;;16.60;99.90;;;;;;5072273;28;20447;-49
2022/10/29 04:52:31;;;;;;;14.10;7.63;;;16.10;99.90;;;;;;5072563;28;20441;-49
2022/10/29 04:54:58;;;;;;;14.63;9.90;;;16.40;99.90;;;;;;5072512;28;20465;-49
2022/10/29 04:57:25;;;;;;;10.07;7.13;;;16.20;99.90;;;;;;5072473;28;20526;-49
2022/10/29 04:59:51;;;;;;;16.23;8.57;;;16.80;99.90;;;;;;5053857;28;20983;-50
2022/10/29 05:02:18;;;;;;;19.47;8.97;;;16.50;99.90;;;;;;5072709;28;20432;-49
2022/10/29 05:04:44;;;;;;;16.30;9.20;;;16.50;99.90;;;;;;5072462;28;20462;-49
2022/10/29 05:07:11;;;;;;;16.43;8.50;;;16.50;99.90;;;;;;5072409;28;20438;-49
2022/10/29 05:09:39;;;;;;;14.33;8.60;;;16.20;99.90;;;;;;5071707;28;20455;-49
2022/10/29 05:12:07;;;;;;;13.63;7.43;;;15.60;99.90;;;;;;5072135;28;20439;-49
2022/10/29 05:14:34;;;;;;;27.57;8.93;;;16.20;99.90;;;;;;5072232;28;20441;-49
2022/10/29 05:17:00;;;;;;;18.60;9.87;;;16.20;99.90;;;;;;5072094;28;20433;-49
2022/10/29 05:19:27;;;;;;;19.77;8.00;;;16.40;99.90;;;;;;5071556;28;20488;-49
2022/10/29 05:21:53;;;;;;;13.00;8.43;;;16.40;99.90;;;;;;5072115;28;20441;-49
2022/10/29 05:24:20;;;;;;;17.07;8.30;;;16.10;99.90;;;;;;5072050;28;20431;-49
2022/10/29 05:26:48;;;;;;;17.50;9.13;;;16.30;99.90;;;;;;5071983;28;20434;-49
2022/10/29 05:29:14;;;;;;;18.63;9.17;;;16.20;99.90;;;;;;5071481;28;20479;-49
2022/10/29 05:31:41;;;;;;;15.53;9.37;;;16.10;99.90;;;;;;5072088;28;20443;-49
2022/10/29 05:34:07;;;;;;;13.20;7.60;;;16.10;99.90;;;;;;5072039;28;20436;-49
2022/10/29 05:36:34;;;;;;;16.83;9.97;;;16.20;99.90;;;;;;5072317;28;20964;-49
2022/10/29 05:39:01;;;;;;;17.37;10.00;;;16.00;99.90;;;;;;5071352;28;20961;-49
2022/10/29 05:41:27;;;;;;;20.33;8.87;;;16.30;99.90;;;;;;5071714;28;20430;-50
2022/10/29 05:43:55;;;;;;;15.23;10.77;;;16.30;99.90;;;;;;5071713;28;20686;-49
2022/10/29 05:46:22;;;;;;;15.57;9.50;;;16.10;99.90;;;;;;5071972;28;20427;-49
2022/10/29 05:48:48;;;;;;;18.73;9.63;;;16.20;99.90;;;;;;5071320;28;20967;-49
2022/10/29 05:51:15;;;;;;;16.03;9.47;;;15.60;99.90;;;;;;5071897;28;20435;-48
2022/10/29 05:53:41;;;;;;;19.13;8.40;;;16.00;99.90;;;;;;5071815;28;20434;-49
2022/10/29 05:56:08;;;;;;;16.60;9.50;;;15.90;99.90;;;;;;5071624;28;20809;-49
2022/10/29 05:58:35;;;;;;;16.90;8.73;;;16.20;99.90;;;;;;5071501;28;20853;-48
2022/10/29 06:01:06;;;;;;;10.87;7.33;;;16.00;99.90;;;;;;5053789;28;20459;-49
2022/10/29 06:03:32;;;;;;;13.10;8.27;;;16.10;99.90;;;;;;5071849;28;20766;-48
2022/10/29 06:05:59;;;;;;;16.47;10.93;;;15.90;99.90;;;;;;5071471;28;20442;-48
2022/10/29 06:08:26;;;;;;;15.20;8.53;;;15.90;99.90;;;;;;5071163;28;20451;-48
2022/10/29 06:10:52;;;;;;;8.83;7.17;;;16.00;99.90;;;;;;5053692;28;20740;-48
2022/10/29 06:13:21;;;;;;;14.70;8.40;;;15.70;99.90;;;;;;5071461;28;20444;-48
2022/10/29 06:15:49;;;;;;;20.70;9.00;;;16.00;99.90;;;;;;5071937;28;20431;-48
2022/10/29 06:18:17;;;;;;;23.03;10.17;;;15.70;99.90;;;;;;5071337;28;20472;-48
2022/10/29 06:20:43;;;;;;;12.63;8.10;;;15.90;99.90;;;;;;5071200;28;20427;-49
2022/10/29 06:23:11;;;;;;;16.33;9.87;;;15.70;99.90;;;;;;5073630;28;20494;-49
2022/10/29 06:25:37;;;;;;;21.30;9.90;;;15.90;99.90;;;;;;5075052;28;20814;-48
2022/10/29 06:28:06;;;;;;;13.37;8.33;;;16.30;99.90;;;;;;5074898;28;20474;-48
2022/10/29 06:30:35;;;;;;;20.83;9.90;;;15.40;99.90;;;;;;5074924;28;20435;-49
2022/10/29 06:33:02;;;;;;;19.30;11.33;;;15.90;99.90;;;;;;5075304;28;20796;-49
2022/10/29 06:35:31;;;;;;;15.70;9.37;;;16.30;99.90;;;;;;5074823;28;20432;-49
2022/10/29 06:37:57;;;;;;;14.80;10.30;;;16.30;99.90;;;;;;5074940;28;20453;-50
2022/10/29 06:40:24;;;;;;;21.90;10.53;;;16.20;99.90;;;;;;5074597;28;20480;-49
2022/10/29 06:42:58;;;;;;;19.57;10.10;;;16.00;99.90;;;;;;5074746;28;20431;-49
2022/10/29 06:45:27;;;;;;;18.43;10.37;;;16.00;99.90;;;;;;5057208;28;20483;-49
2022/10/29 06:47:53;;;;;;;15.70;10.80;;;16.40;99.90;;;;;;5074611;28;20553;-49
2022/10/29 06:50:20;;;;;;;15.43;9.40;;;15.90;99.90;;;;;;5074228;28;20434;-49
2022/10/29 06:52:58;;;;;;;21.50;9.93;;;16.00;99.90;;;;;;5074682;28;20435;-49
2022/10/29 06:55:25;;;;;;;20.80;9.93;;;16.10;99.90;;;;;;5074792;28;20441;-49
2022/10/29 06:57:59;;;;;;;19.33;9.73;;;16.50;99.90;;;;;;5074546;28;20456;-49
2022/10/29 07:00:26;;;;;;;24.00;9.70;;;16.30;99.90;;;;;;5074089;28;20471;-49
2022/10/29 07:02:52;;;;;;;20.13;10.20;;;16.20;99.90;;;;;;5074467;28;20489;-49
2022/10/29 07:05:19;;;;;;;23.60;9.30;;;16.40;99.90;;;;;;5074200;28;20950;-49
2022/10/29 07:07:46;;;;;;;16.70;9.83;;;16.20;99.90;;;;;;5074278;28;20434;-49
2022/10/29 07:10:14;;;;;;;20.90;10.57;;;16.50;99.90;;;;;;5073858;28;20486;-49
2022/10/29 07:12:41;;;;;;;22.60;10.00;;;16.40;99.90;;;;;;5074263;28;20439;-50
2022/10/29 07:15:08;;;;;;;16.43;10.53;;;16.40;99.90;;;;;;5074166;28;20490;-49
2022/10/29 07:17:35;;;;;;;21.40;10.73;;;16.50;99.90;;;;;;5074225;28;20431;-49
2022/10/29 07:20:02;;;;;;;18.23;10.10;;;16.30;99.90;;;;;;5073732;28;20485;-49
2022/10/29 07:22:29;;;;;;;16.87;9.40;;;16.00;99.90;;;;;;5074286;28;20434;-50
2022/10/29 07:24:55;;;;;;;25.13;9.93;;;16.70;99.90;;;;;;5074214;28;20432;-49
2022/10/29 07:27:23;;;;;;;18.83;8.93;;;16.30;99.90;;;;;;5074155;28;20446;-49
2022/10/29 07:29:50;;;;;;;16.13;8.17;;;16.30;99.90;;;;;;5073301;28;20477;-49
2022/10/29 07:32:17;;;;;;;18.17;9.30;;;16.50;99.90;;;;;;5073945;28;20815;-49
2022/10/29 07:34:43;;;;;;;13.23;9.57;;;16.80;99.90;;;;;;5072682;28;20440;-49
2022/10/29 07:37:10;;;;;;;17.13;9.27;;;16.60;99.90;;;;;;5073939;28;20433;-48
2022/10/29 07:39:36;;;;;;;17.80;8.67;;;16.80;99.90;;;;;;5073419;28;20476;-49
2022/10/29 07:42:04;;;;;;;14.00;8.07;;;16.60;99.90;;;;;;5074071;28;20844;-48
2022/10/29 07:44:32;;;;;;;11.93;8.40;;;16.60;99.90;;;;;;5074488;28;21130;-48
2022/10/29 07:47:00;;;;;;;14.60;8.67;;;16.90;99.90;;;;;;5073795;28;20443;-49
2022/10/29 07:49:27;;;;;;;15.90;8.80;;;17.10;99.90;;;;;;5073075;28;20598;-48
2022/10/29 07:51:54;;;;;;;20.77;8.30;;;16.80;99.90;;;;;;5073799;28;20440;-49
2022/10/29 07:54:20;;;;;;;19.70;9.37;;;16.60;99.90;;;;;;5073461;28;20432;-48
2022/10/29 07:56:47;;;;;;;19.17;9.63;;;16.90;99.90;;;;;;5073512;28;20436;-49
2022/10/29 07:59:14;;;;;;;17.80;9.40;;;17.10;99.90;;;;;;5072904;28;20479;-49
2022/10/29 08:01:42;;;;;;;18.23;8.80;;;16.70;99.90;;;;;;5055680;28;20448;-49
2022/10/29 08:04:09;;;;;;;19.77;9.50;;;17.00;99.90;;;;;;5073320;28;20446;-49
2022/10/29 08:06:35;;;;;;;28.53;11.23;;;17.00;99.90;;;;;;5073549;28;20469;-49
2022/10/29 08:09:02;;;;;;;22.30;9.47;;;17.40;99.90;;;;;;5072996;28;20456;-49
2022/10/29 08:11:31;;;;;;;15.33;9.30;;;17.20;99.90;;;;;;5073338;28;20451;-49
2022/10/29 08:13:58;;;;;;;21.27;9.70;;;17.30;99.90;;;;;;5073508;28;20440;-47
2022/10/29 08:16:24;;;;;;;22.63;10.80;;;17.50;99.90;;;;;;5054919;28;20452;-50
2022/10/29 08:18:52;;;;;;;23.53;9.80;;;17.10;99.90;;;;;;5072320;28;20483;-49
2022/10/29 08:21:19;;;;;;;17.30;8.17;;;17.50;99.90;;;;;;5072718;28;20492;-49
2022/10/29 08:23:46;;;;;;;16.87;8.77;;;17.30;99.90;;;;;;5054924;28;20545;-49
2022/10/29 08:26:12;;;;;;;20.10;9.97;;;17.40;99.90;;;;;;5072493;28;20443;-49
2022/10/29 08:28:41;;;;;;;23.87;12.57;;;17.20;99.90;;;;;;5072122;28;20680;-49
2022/10/29 08:31:08;;;;;;;18.20;9.10;;;17.60;99.90;;;;;;5072335;28;20840;-50
2022/10/29 08:33:34;;;;;;;19.00;11.70;;;17.40;99.90;;;;;;5072530;28;20429;-49
2022/10/29 08:36:02;;;;;;;22.03;11.90;;;17.60;99.90;;;;;;5072185;28;20818;-50
2022/10/29 08:38:29;;;;;;;21.70;12.13;;;17.50;99.90;;;;;;5072028;28;20449;-50
2022/10/29 08:41:25;;;;;;;23.07;12.93;;;17.60;99.90;;;;;;5072332;28;20567;-49
2022/10/29 08:44:06;;;;;;;19.13;10.73;;;17.60;99.90;;;;;;5072404;28;20429;-49
2022/10/29 08:46:43;;;;;;;20.70;12.77;;;17.40;99.90;;;;;;5071769;28;20967;-49
2022/10/29 08:49:14;;;;;;;20.93;10.73;;;17.80;99.90;;;;;;5071749;28;20463;-48
2022/10/29 08:51:47;;;;;;;20.20;12.00;;;18.00;99.90;;;;;;5072379;28;20456;-49
2022/10/29 08:54:16;;;;;;;20.83;11.43;;;18.10;99.90;;;;;;5072216;28;20429;-50
2022/10/29 08:56:47;;;;;;;21.70;10.77;;;17.80;99.90;;;;;;5072470;28;20519;-49
2022/10/29 08:59:16;;;;;;;20.00;10.77;;;17.90;99.90;;;;;;5071633;28;20460;-50
2022/10/29 09:01:42;;;;;;;26.23;11.30;;;18.00;99.90;;;;;;5054112;28;20453;-49
2022/10/29 09:04:22;;;;;;;20.33;10.13;;;17.80;99.90;;;;;;5072065;28;20444;-49
2022/10/29 09:07:00;;;;;;;18.60;10.90;;;17.90;99.90;;;;;;5072047;28;20479;-50
2022/10/29 09:09:32;;;;;;;27.07;12.53;;;18.00;99.90;;;;;;5071608;28;20477;-50
2022/10/29 09:12:10;;;;;;;17.67;10.30;;;18.10;99.90;;;;;;5071911;28;20444;-50
2022/10/29 09:14:48;;;;;;;21.93;10.20;;;18.30;99.90;;;;;;5053581;28;20887;-50
2022/10/29 09:17:26;;;;;;;18.30;10.20;;;17.90;99.90;;;;;;5071759;28;20438;-50
2022/10/29 09:20:08;;;;;;;20.50;9.50;;;18.10;99.90;;;;;;5071528;28;20813;-50
2022/10/29 09:22:46;;;;;;;14.83;10.93;;;18.10;99.90;;;;;;5071689;28;20441;-50
2022/10/29 09:25:19;;;;;;;19.37;11.00;;;18.60;99.90;;;;;;5071885;28;20547;-49
2022/10/29 09:27:58;;;;;;;22.47;11.63;;;18.10;99.90;;;;;;5071838;28;20446;-49
2022/10/29 09:30:29;;;;;;;24.13;12.00;;;18.30;99.90;;;;;;5070550;28;20442;-49
2022/10/29 09:32:59;;;;;;;24.30;13.67;;;18.30;99.90;;;;;;5070760;28;20461;-50
2022/10/29 09:35:37;;;;;;;23.53;11.20;;;18.80;99.90;;;;;;5052828;28;20460;-49
2022/10/29 09:38:13;;;;;;;19.80;10.27;;;18.30;99.90;;;;;;5070681;28;20460;-50
2022/10/29 09:40:41;;;;;;;18.60;9.57;;;18.20;99.90;;;;;;5070388;28;20480;-50
2022/10/29 09:43:23;;;;;;;16.13;10.60;;;18.60;99.90;;;;;;5071122;28;20436;-49
2022/10/29 09:45:57;;;;;;;18.80;9.83;;;18.20;99.90;;;;;;5070548;28;20441;-49
2022/10/29 09:48:31;;;;;;;15.97;8.73;;;18.30;99.90;;;;;;5070790;28;20804;-49
2022/10/29 09:51:07;;;;;;;20.37;8.93;;;18.20;99.90;;;;;;5070644;28;20433;-50
2022/10/29 09:53:35;;;;;;;12.70;8.10;;;18.60;99.90;;;;;;5070190;28;20434;-50
2022/10/29 09:56:06;;;;;;;17.87;10.50;;;19.00;99.90;;;;;;5070416;28;20434;-50
2022/10/29 09:58:37;;;;;;;16.20;11.70;;;19.00;99.90;;;;;;5072690;28;20450;-50
2022/10/29 10:01:04;;;;;;;19.93;10.33;;;18.70;99.90;;;;;;5073789;28;20508;-49
2022/10/29 10:03:36;;;;;;;18.63;8.80;;;18.80;99.90;;;;;;5074192;28;20442;-49
2022/10/29 10:06:05;;;;;;;21.07;9.27;;;18.90;99.90;;;;;;5074006;28;20433;-48
2022/10/29 10:08:32;;;;;;;21.63;9.60;;;19.00;99.90;;;;;;5073458;28;20458;-48
2022/10/29 10:11:03;;;;;;;17.27;10.00;;;18.90;99.90;;;;;;5055593;28;20631;-48
2022/10/29 10:13:32;;;;;;;16.33;7.60;;;19.10;99.90;;;;;;5073799;28;20410;-49
2022/10/29 10:16:00;;;;;;;15.67;9.00;;;19.20;99.90;;;;;;5073901;28;20443;-48
2022/10/29 10:18:38;;;;;;;14.67;10.47;;;19.00;99.90;;;;;;5073134;28;20541;-50
2022/10/29 10:21:07;;;;;;;20.50;10.17;;;18.90;99.90;;;;;;5073846;28;20474;-49
2022/10/29 10:23:43;;;;;;;21.67;11.20;;;19.10;99.90;;;;;;5073453;28;20439;-50
2022/10/29 10:26:32;;;;;;;31.70;13.27;;;19.40;99.90;;;;;;5073713;28;20433;-49
2022/10/29 10:29:20;;;;;;;19.60;10.13;;;19.30;99.90;;;;;;5062011;22;988643;-50
2022/10/29 10:31:48;;;;;;;20.63;10.37;;;19.80;99.90;;;;;;5068661;28;20215;-50
2022/10/29 10:34:18;;;;;;;17.70;11.40;;;19.10;99.90;;;;;;5074497;28;20439;-50
2022/10/29 10:36:48;;;;;;;15.20;9.80;;;19.60;99.90;;;;;;5074158;28;20430;-50
2022/10/29 10:39:26;;;;;;;20.50;11.00;;;19.60;99.90;;;;;;5073717;28;20455;-51
2022/10/29 10:41:56;;;;;;;23.53;10.93;;;19.40;99.90;;;;;;5074131;28;20479;-49
2022/10/29 10:44:23;;;;;;;20.73;11.50;;;19.70;99.90;;;;;;5074516;28;20519;-49
2022/10/29 10:46:53;;;;;;;17.30;10.23;;;19.70;99.90;;;;;;5074242;28;20791;-50
2022/10/29 10:49:28;;;;;;;14.43;9.80;;;19.80;99.90;;;;;;5073324;28;20533;-49
2022/10/29 10:51:57;;;;;;;22.73;10.90;;;19.80;99.90;;;;;;5073251;28;20435;-50
2022/10/29 10:54:29;;;;;;;20.53;11.17;;;19.40;99.90;;;;;;5074292;28;20427;-50
2022/10/29 10:56:59;;;;;;;15.40;10.60;;;19.50;99.90;;;;;;5074010;28;20462;-48
2022/10/29 10:59:33;;;;;;;18.90;10.47;;;19.40;99.90;;;;;;5074134;28;20473;-49
2022/10/29 11:02:02;;;;;;;14.00;10.10;;;19.50;99.90;;;;;;5056105;28;20474;-49
2022/10/29 11:04:34;;;;;;;12.40;8.83;;;19.60;99.90;;;;;;5073615;28;20447;-49
2022/10/29 11:07:05;;;;;;;14.50;8.83;;;19.60;99.90;;;;;;5073151;28;20442;-50
2022/10/29 11:09:37;;;;;;;20.40;11.00;;;19.60;99.90;;;;;;5072155;28;20459;-49
2022/10/29 11:12:12;;;;;;;17.83;9.20;;;19.60;99.90;;;;;;5055691;28;20446;-50
2022/10/29 11:14:46;;;;;;;17.17;10.77;;;19.90;99.90;;;;;;5055790;28;20452;-50
2022/10/29 11:17:27;;;;;;;17.17;9.03;;;19.70;99.90;;;;;;5072945;28;20478;-50
2022/10/29 11:19:58;;;;;;;16.30;10.60;;;19.60;99.90;;;;;;5073647;28;20459;-50
2022/10/29 11:22:31;;;;;;;17.10;8.77;;;19.70;99.90;;;;;;5072853;28;20897;-50
2022/10/29 11:25:04;;;;;;;19.33;10.23;;;19.50;99.90;;;;;;5073699;28;20790;-49
2022/10/29 11:27:39;;;;;;;20.07;9.87;;;19.70;99.90;;;;;;5072936;28;20500;-50
2022/10/29 11:30:10;;;;;;;15.03;9.03;;;20.00;99.90;;;;;;5073101;28;20471;-50
2022/10/29 11:32:51;;;;;;;14.30;9.27;;;19.60;99.90;;;;;;5073329;28;20432;-49
2022/10/29 11:35:23;;;;;;;15.80;9.50;;;19.90;99.90;;;;;;5073376;28;20440;-48
2022/10/29 11:37:56;;;;;;;20.03;8.63;;;19.90;99.90;;;;;;5073268;28;20869;-49
2022/10/29 11:40:26;;;;;;;16.03;8.20;;;19.80;99.90;;;;;;5072941;28;20833;-50
2022/10/29 11:42:54;;;;;;;12.70;8.03;;;19.70;99.90;;;;;;5073444;28;20433;-49
2022/10/29 11:45:29;;;;;;;14.70;8.07;;;19.60;99.90;;;;;;5054941;28;20462;-49
2022/10/29 11:48:18;;;;;;;13.93;8.20;;;19.90;99.90;;;;;;5073427;28;20526;-49
2022/10/29 11:50:52;;;;;;;18.47;10.73;;;19.80;99.90;;;;;;5072535;28;20466;-49
2022/10/29 11:53:32;;;;;;;21.57;9.33;;;19.90;99.90;;;;;;5072811;28;20440;-51
2022/10/29 11:56:07;;;;;;;18.67;8.30;;;20.00;99.90;;;;;;5072689;28;20440;-49
2022/10/29 11:58:41;;;;;;;14.23;8.77;;;19.90;99.90;;;;;;5072172;28;20450;-50
2022/10/29 12:01:17;;;;;;;19.20;9.77;;;19.60;99.90;;;;;;5072889;28;21003;-50
2022/10/29 12:04:01;;;;;;;14.83;7.30;;;20.10;99.90;;;;;;5072699;28;20434;-49
2022/10/29 12:06:34;;;;;;;18.27;9.70;;;19.70;99.90;;;;;;5072257;28;20450;-49
2022/10/29 12:09:14;;;;;;;18.80;11.57;;;19.70;99.90;;;;;;5071886;28;20449;-50
2022/10/29 12:11:46;;;;;;;13.00;9.00;;;19.90;99.90;;;;;;5072413;28;20432;-51
2022/10/29 12:14:25;;;;;;;20.80;9.77;;;19.80;99.90;;;;;;5072452;28;20447;-50
2022/10/29 12:16:58;;;;;;;16.87;10.17;;;19.40;99.90;;;;;;5054255;28;20460;-49
2022/10/29 12:19:39;;;;;;;13.03;8.57;;;19.70;99.90;;;;;;5071578;28;20982;-50
2022/10/29 12:22:18;;;;;;;20.17;8.70;;;20.00;99.90;;;;;;5072228;28;20494;-49
2022/10/29 12:24:56;;;;;;;15.90;8.30;;;19.90;99.90;;;;;;5072376;28;20428;-50
2022/10/29 12:27:30;;;;;;;14.03;8.10;;;19.90;99.90;;;;;;5072351;28;20538;-51
2022/10/29 12:30:02;;;;;;;16.07;9.00;;;19.90;99.90;;;;;;5053426;28;20475;-51
2022/10/29 12:32:36;;;;;;;13.60;11.03;;;20.10;99.90;;;;;;5071798;28;20755;-50
2022/10/29 12:35:10;;;;;;;13.53;8.20;;;20.20;99.90;;;;;;5072045;28;20880;-50
2022/10/29 12:37:43;;;;;;;13.93;9.03;;;20.30;99.90;;;;;;5072005;28;20445;-50
2022/10/29 12:40:18;;;;;;;14.53;9.20;;;20.20;99.90;;;;;;5070699;28;20462;-50
2022/10/29 12:42:47;;;;;;;14.70;9.70;;;20.30;99.90;;;;;;5053554;28;20450;-50
2022/10/29 12:45:24;;;;;;;15.43;9.40;;;20.00;99.90;;;;;;5071804;28;20458;-51
2022/10/29 12:47:59;;;;;;;22.43;11.00;;;20.00;99.90;;;;;;5071583;28;20436;-49